createdAt,value
2018-04-07T00:01:33.680Z,63.80
2018-04-07T00:04:01.112Z,64.80
2018-04-07T00:06:28.572Z,63.70
2018-04-07T00:08:56.001Z,64.90
2018-04-07T00:11:24.220Z,64.30
2018-04-07T00:13:51.679Z,64.30
2018-04-07T00:16:19.140Z,64.40
2018-04-07T00:18:46.580Z,65.30
2018-04-07T00:21:14.029Z,64.60
2018-04-07T00:23:41.473Z,64.40
2018-04-07T00:26:08.920Z,64.40
2018-04-07T00:28:37.137Z,64.60
2018-04-07T00:31:04.614Z,64.60
2018-04-07T00:33:32.068Z,64.40
2018-04-07T00:35:59.522Z,63.90
2018-04-07T00:38:26.975Z,64.00
2018-04-07T00:40:54.458Z,65.30
2018-04-07T00:43:21.901Z,65.00
2018-04-07T00:45:49.353Z,63.60
2018-04-07T00:48:16.799Z,63.40
2018-04-07T00:50:44.249Z,63.00
2018-04-07T00:53:11.697Z,63.60
2018-04-07T00:55:39.139Z,63.40
2018-04-07T00:58:06.594Z,63.50
2018-04-07T01:00:34.785Z,64.10
2018-04-07T01:03:02.252Z,64.10
2018-04-07T01:05:29.676Z,64.20
2018-04-07T01:07:57.123Z,64.80
2018-04-07T01:10:25.340Z,65.60
2018-04-07T01:12:52.788Z,65.60
2018-04-07T01:15:20.231Z,66.00
2018-04-07T01:17:47.688Z,65.80
2018-04-07T01:20:15.121Z,64.40
2018-04-07T01:22:43.352Z,64.60
2018-04-07T01:25:10.804Z,64.60
2018-04-07T01:27:38.255Z,65.70
2018-04-07T01:30:05.699Z,65.60
2018-04-07T01:32:33.141Z,66.40
2018-04-07T01:35:00.591Z,66.90
2018-04-07T01:37:28.804Z,68.00
2018-04-07T01:39:56.261Z,68.00
2018-04-07T01:42:23.707Z,68.40
2018-04-07T01:44:51.175Z,67.40
2018-04-07T01:47:18.607Z,66.60
2018-04-07T01:49:46.054Z,66.00
2018-04-07T01:52:14.253Z,66.20
2018-04-07T01:54:41.713Z,66.20
2018-04-07T01:57:09.143Z,66.50
2018-04-07T01:59:37.360Z,68.10
2018-04-07T02:02:04.808Z,68.00
2018-04-07T02:04:32.253Z,67.70
2018-04-07T02:06:59.694Z,67.70
2018-04-07T02:09:27.140Z,66.60
2018-04-07T02:11:55.361Z,66.60
2018-04-07T02:14:22.808Z,66.50
2018-04-07T02:16:50.245Z,67.10
2018-04-07T02:19:17.702Z,66.70
2018-04-07T02:21:45.140Z,67.40
2018-04-07T02:24:13.356Z,68.10
2018-04-07T02:26:40.804Z,68.10
2018-04-07T02:29:08.272Z,67.30
2018-04-07T02:31:35.711Z,68.70
2018-04-07T02:34:03.160Z,68.80
2018-04-07T02:36:30.599Z,68.80
2018-04-07T02:38:58.817Z,69.60
2018-04-07T02:41:26.275Z,69.60
2018-04-07T02:43:53.726Z,70.20
2018-04-07T02:46:21.154Z,70.40
2018-04-07T02:48:48.602Z,69.90
2018-04-07T02:51:16.820Z,70.80
2018-04-07T02:53:44.266Z,70.70
2018-04-07T02:56:11.723Z,70.60
2018-04-07T02:58:39.190Z,70.80
2018-04-07T03:01:06.637Z,70.90
2018-04-07T03:03:34.093Z,71.20
2018-04-07T03:06:01.534Z,71.60
2018-04-07T03:08:28.974Z,71.80
2018-04-07T03:10:57.190Z,71.70
2018-04-07T03:13:24.629Z,71.70
2018-04-07T03:15:52.085Z,71.00
2018-04-07T03:18:19.529Z,70.50
2018-04-07T03:20:47.753Z,71.60
2018-04-07T03:23:15.193Z,71.60
2018-04-07T03:25:42.644Z,72.00
2018-04-07T03:28:10.091Z,72.30
2018-04-07T03:30:37.539Z,73.00
2018-04-07T03:33:05.007Z,73.20
2018-04-07T03:35:32.461Z,72.80
2018-04-07T03:37:59.901Z,71.60
2018-04-07T03:40:28.124Z,70.30
2018-04-07T03:42:55.573Z,70.30
2018-04-07T03:45:23.022Z,70.40
2018-04-07T03:47:50.461Z,70.80
2018-04-07T03:50:17.904Z,70.60
2018-04-07T03:52:46.126Z,72.00
2018-04-07T03:55:13.581Z,71.90
2018-04-07T03:57:41.044Z,71.80
2018-04-07T04:00:08.482Z,70.80
2018-04-07T04:02:35.936Z,71.10
2018-04-07T04:05:03.374Z,71.60
2018-04-07T04:07:31.618Z,71.20
2018-04-07T04:09:59.058Z,71.10
2018-04-07T04:12:26.509Z,70.80
2018-04-07T04:14:54.737Z,71.20
2018-04-07T04:17:22.944Z,71.70
2018-04-07T04:19:50.379Z,71.70
2018-04-07T04:22:17.820Z,71.60
2018-04-07T04:24:46.021Z,72.00
2018-04-07T04:27:13.477Z,72.00
2018-04-07T04:29:40.908Z,71.60
2018-04-07T04:32:09.152Z,72.90
2018-04-07T04:34:36.590Z,72.90
2018-04-07T04:37:04.040Z,73.90
2018-04-07T04:39:31.472Z,72.00
2018-04-07T04:41:58.980Z,72.50
2018-04-07T04:44:26.437Z,73.80
2018-04-07T04:46:53.878Z,72.90
2018-04-07T04:49:21.324Z,71.40
2018-04-07T04:51:48.800Z,72.40
2018-04-07T04:54:16.250Z,72.90
2018-04-07T04:56:43.738Z,72.30
2018-04-07T04:59:11.171Z,71.70
2018-04-07T05:01:39.385Z,72.80
2018-04-07T05:04:07.595Z,72.10
2018-04-07T05:06:35.021Z,72.10
2018-04-07T05:09:03.243Z,72.40
2018-04-07T05:11:30.672Z,72.40
2018-04-07T05:13:58.113Z,72.30
2018-04-07T05:16:26.318Z,73.50
2018-04-07T05:18:53.770Z,74.20
2018-04-07T05:21:21.212Z,73.50
2018-04-07T05:23:48.661Z,73.40
2018-04-07T05:26:16.876Z,73.90
2018-04-07T05:28:44.317Z,73.90
2018-04-07T05:31:11.753Z,74.10
2018-04-07T05:33:39.990Z,73.60
2018-04-07T05:36:07.441Z,73.60
2018-04-07T05:38:34.908Z,73.20
2018-04-07T05:41:02.369Z,72.40
2018-04-07T05:43:29.843Z,71.40
2018-04-07T05:45:58.249Z,69.90
2018-04-07T05:48:25.692Z,69.90
2018-04-07T05:50:53.125Z,70.10
2018-04-07T05:53:20.592Z,70.50
2018-04-07T05:55:48.031Z,72.00
2018-04-07T05:58:15.486Z,71.40
2018-04-07T06:00:42.922Z,71.70
2018-04-07T06:03:10.373Z,72.20
2018-04-07T06:05:37.820Z,71.90
2018-04-07T06:08:05.270Z,71.70
2018-04-07T06:10:32.709Z,72.00
2018-04-07T06:13:00.202Z,71.40
2018-04-07T06:15:27.656Z,72.00
2018-04-07T06:17:55.103Z,72.60
2018-04-07T06:20:22.559Z,73.60
2018-04-07T06:22:50.013Z,73.00
2018-04-07T06:25:17.440Z,73.50
2018-04-07T06:27:45.664Z,73.10
2018-04-07T06:30:13.132Z,73.10
2018-04-07T06:32:40.572Z,73.80
2018-04-07T06:35:08.032Z,72.50
2018-04-07T06:37:35.493Z,72.40
2018-04-07T06:40:02.939Z,72.90
2018-04-07T06:42:30.393Z,71.70
2018-04-07T06:44:57.840Z,70.90
2018-04-07T06:47:25.290Z,71.20
2018-04-07T06:49:53.491Z,70.60
2018-04-07T06:52:20.954Z,70.60
2018-04-07T06:54:48.465Z,69.30
2018-04-07T06:57:16.686Z,66.50
2018-04-07T06:59:44.140Z,66.50
2018-04-07T07:02:11.590Z,66.10
2018-04-07T07:04:39.048Z,66.10
2018-04-07T07:07:06.476Z,66.20
2018-04-07T07:09:34.688Z,64.20
2018-04-07T07:12:02.145Z,64.00
2018-04-07T07:14:29.605Z,63.80
2018-04-07T07:16:57.068Z,63.20
2018-04-07T07:19:24.544Z,63.50
2018-04-07T07:21:51.984Z,63.40
2018-04-07T07:24:19.484Z,63.50
2018-04-07T07:26:46.893Z,63.40
2018-04-07T07:29:14.361Z,62.80
2018-04-07T07:31:41.792Z,62.70
2018-04-07T07:34:09.261Z,61.60
2018-04-07T07:36:36.742Z,61.30
2018-04-07T07:39:04.141Z,61.00
2018-04-07T07:41:32.353Z,58.00
2018-04-07T07:43:59.797Z,57.80
2018-04-07T07:46:27.253Z,58.30
2018-04-07T07:48:54.701Z,57.90
2018-04-07T07:51:22.162Z,58.70
2018-04-07T07:53:49.619Z,58.00
2018-04-07T07:56:17.066Z,52.70
2018-04-07T07:58:44.506Z,48.30
2018-04-07T08:01:12.729Z,46.90
2018-04-07T08:03:40.177Z,46.80
2018-04-07T08:06:07.633Z,43.10
2018-04-07T08:08:35.093Z,41.60
2018-04-07T08:11:02.552Z,39.70
2018-04-07T08:13:30.004Z,40.10
2018-04-07T08:15:57.468Z,40.20
2018-04-07T08:18:24.918Z,38.60
2018-04-07T08:20:52.398Z,37.80
2018-04-07T08:23:19.860Z,37.40
2018-04-07T08:25:47.312Z,37.20
2018-04-07T08:28:14.754Z,35.60
2018-04-07T08:30:42.220Z,37.30
2018-04-07T08:33:10.442Z,35.00
2018-04-07T08:35:38.657Z,35.80
2018-04-07T08:38:06.102Z,35.60
2018-04-07T08:40:33.559Z,34.00
2018-04-07T08:43:01.004Z,35.60
2018-04-07T08:45:28.470Z,34.10
2018-04-07T08:47:55.913Z,34.00
2018-04-07T08:50:24.132Z,33.70
2018-04-07T08:52:51.572Z,33.60
2018-04-07T08:55:19.051Z,33.40
2018-04-07T08:57:47.256Z,32.90
2018-04-07T09:00:14.701Z,32.80
2018-04-07T09:02:42.148Z,31.80
2018-04-07T09:05:09.635Z,32.30
2018-04-07T09:07:37.052Z,31.20
2018-04-07T09:10:04.496Z,31.60
2018-04-07T09:12:31.952Z,31.10
2018-04-07T09:14:59.483Z,30.00
2018-04-07T09:17:26.986Z,31.90
2018-04-07T09:19:54.457Z,30.80
2018-04-07T09:22:21.972Z,31.70
2018-04-07T09:24:49.422Z,30.20
2018-04-07T09:27:16.961Z,31.70
2018-04-07T09:29:44.461Z,30.40
2018-04-07T09:32:11.924Z,30.00
2018-04-07T09:34:39.368Z,29.30
2018-04-07T09:37:06.832Z,29.40
2018-04-07T09:39:34.296Z,29.00
2018-04-07T09:42:01.778Z,29.00
2018-04-07T09:44:29.200Z,28.80
2018-04-07T09:46:56.658Z,29.80
2018-04-07T09:49:24.108Z,29.10
2018-04-07T09:51:51.557Z,28.50
2018-04-07T09:54:19.009Z,28.10
2018-04-07T09:56:46.472Z,27.70
2018-04-07T09:59:13.929Z,27.90
2018-04-07T10:01:42.165Z,28.80
2018-04-07T10:04:09.612Z,26.20
2018-04-07T10:06:37.069Z,26.60
2018-04-07T10:09:05.326Z,27.40
2018-04-07T10:11:32.832Z,28.00
2018-04-07T10:14:01.053Z,28.40
2018-04-07T10:16:28.508Z,28.30
2018-04-07T10:18:55.959Z,28.20
2018-04-07T10:21:23.412Z,27.50
2018-04-07T10:23:50.873Z,27.70
2018-04-07T10:26:18.312Z,26.00
2018-04-07T10:28:45.777Z,25.80
2018-04-07T10:31:13.243Z,27.10
2018-04-07T10:33:40.724Z,26.00
2018-04-07T10:36:08.210Z,26.30
2018-04-07T10:38:35.654Z,25.90
2018-04-07T10:41:03.092Z,27.60
2018-04-07T10:43:30.545Z,27.60
2018-04-07T10:45:58.763Z,26.00
2018-04-07T10:48:26.209Z,26.00
2018-04-07T10:50:53.782Z,26.40
2018-04-07T10:53:22.000Z,26.70
2018-04-07T10:55:49.445Z,26.70
2018-04-07T10:58:16.913Z,27.20
2018-04-07T11:00:44.365Z,27.50
2018-04-07T11:03:11.824Z,27.70
2018-04-07T11:05:39.260Z,28.80
2018-04-07T11:08:06.726Z,28.10
2018-04-07T11:10:34.234Z,27.70
2018-04-07T11:13:02.394Z,27.60
2018-04-07T11:15:29.829Z,27.60
2018-04-07T11:17:57.285Z,28.20
2018-04-07T11:20:24.748Z,28.20
2018-04-07T11:22:52.212Z,27.50
2018-04-07T11:25:19.659Z,27.90
2018-04-07T11:27:47.119Z,27.80
2018-04-07T11:30:14.572Z,28.40
2018-04-07T11:32:42.025Z,27.70
2018-04-07T11:35:09.488Z,27.80
2018-04-07T11:37:36.945Z,27.20
2018-04-07T11:40:05.222Z,28.80
2018-04-07T11:42:32.660Z,27.70
2018-04-07T11:45:00.113Z,27.90
2018-04-07T11:47:27.568Z,28.90
2018-04-07T11:49:55.788Z,29.30
2018-04-07T11:52:23.238Z,29.20
2018-04-07T11:54:50.709Z,29.30
2018-04-07T11:57:18.164Z,29.00
2018-04-07T11:59:45.616Z,30.00
2018-04-07T12:02:13.077Z,29.50
2018-04-07T12:04:40.546Z,28.70
2018-04-07T12:07:07.991Z,30.00
2018-04-07T12:09:35.458Z,29.10
2018-04-07T12:12:02.890Z,30.30
2018-04-07T12:14:30.376Z,29.90
2018-04-07T12:16:58.213Z,29.60
2018-04-07T12:19:25.949Z,29.50
2018-04-07T12:21:53.381Z,30.40
2018-04-07T12:24:20.834Z,30.10
2018-04-07T12:26:48.277Z,31.20
2018-04-07T12:29:15.737Z,29.50
2018-04-07T12:31:47.395Z,29.00
2018-04-07T12:34:14.857Z,29.00
2018-04-07T12:36:42.296Z,29.40
2018-04-07T12:39:09.756Z,29.30
2018-04-07T12:41:37.197Z,28.10
2018-04-07T12:44:04.658Z,29.60
2018-04-07T12:46:32.107Z,30.10
2018-04-07T12:48:59.572Z,30.60
2018-04-07T12:51:27.025Z,30.40
2018-04-07T12:53:54.478Z,29.70
2018-04-07T12:56:21.920Z,28.50
2018-04-07T12:58:49.413Z,27.90
2018-04-07T13:01:16.884Z,29.30
2018-04-07T13:03:44.310Z,28.60
2018-04-07T13:06:11.772Z,27.90
2018-04-07T13:08:40.003Z,29.40
2018-04-07T13:11:08.223Z,29.60
2018-04-07T13:13:35.664Z,29.60
2018-04-07T13:16:03.113Z,30.70
2018-04-07T13:18:30.575Z,29.10
2018-04-07T13:20:58.026Z,29.80
2018-04-07T13:23:25.480Z,30.20
2018-04-07T13:25:52.938Z,30.10
2018-04-07T13:28:20.377Z,32.00
2018-04-07T13:30:48.626Z,33.40
2018-04-07T13:33:16.085Z,32.80
2018-04-07T13:35:43.544Z,32.30
2018-04-07T13:38:11.013Z,34.10
2018-04-07T13:40:38.457Z,33.40
2018-04-07T13:43:05.928Z,34.40
2018-04-07T13:45:33.385Z,33.90
2018-04-07T13:48:00.855Z,34.30
2018-04-07T13:50:29.102Z,33.80
2018-04-07T13:52:56.546Z,33.70
2018-04-07T13:55:24.014Z,32.70
2018-04-07T13:57:51.465Z,33.00
2018-04-07T14:00:18.941Z,33.40
2018-04-07T14:02:46.417Z,32.10
2018-04-07T14:05:14.647Z,34.00
2018-04-07T14:07:42.090Z,33.90
2018-04-07T14:10:09.561Z,33.40
2018-04-07T14:12:37.028Z,32.30
2018-04-07T14:15:04.529Z,33.40
2018-04-07T14:17:31.988Z,31.00
2018-04-07T14:20:00.216Z,31.20
2018-04-07T14:22:27.669Z,31.10
2018-04-07T14:24:55.132Z,30.60
2018-04-07T14:27:22.597Z,31.00
2018-04-07T14:29:50.045Z,29.30
2018-04-07T14:32:17.532Z,29.60
2018-04-07T14:34:45.737Z,31.70
2018-04-07T14:37:13.202Z,31.70
2018-04-07T14:39:40.652Z,30.90
2018-04-07T14:42:08.132Z,30.50
2018-04-07T14:44:35.587Z,30.80
2018-04-07T14:47:03.031Z,30.90
2018-04-07T14:49:30.489Z,30.30
2018-04-07T14:51:57.932Z,30.40
2018-04-07T14:54:25.407Z,29.90
2018-04-07T14:56:52.877Z,29.20
2018-04-07T14:59:20.361Z,29.90
2018-04-07T15:01:47.808Z,30.70
2018-04-07T15:04:15.264Z,29.80
2018-04-07T15:06:42.725Z,30.30
2018-04-07T15:09:10.174Z,28.70
2018-04-07T15:11:37.645Z,29.10
2018-04-07T15:14:05.088Z,29.30
2018-04-07T15:16:32.550Z,29.60
2018-04-07T15:18:59.989Z,28.70
2018-04-07T15:21:27.446Z,29.20
2018-04-07T15:23:54.906Z,29.00
2018-04-07T15:26:22.360Z,31.20
2018-04-07T15:28:49.824Z,31.60
2018-04-07T15:31:17.282Z,31.00
2018-04-07T15:33:44.725Z,32.10
2018-04-07T15:36:12.180Z,32.00
2018-04-07T15:38:39.641Z,31.70
2018-04-07T15:41:07.106Z,31.40
2018-04-07T15:43:34.558Z,31.20
2018-04-07T15:46:02.018Z,30.10
2018-04-07T15:48:29.531Z,30.40
2018-04-07T15:50:56.928Z,29.60
2018-04-07T15:53:24.372Z,29.40
2018-04-07T15:55:51.816Z,29.80
2018-04-07T15:58:20.033Z,29.50
2018-04-07T16:00:47.549Z,29.50
2018-04-07T16:03:14.957Z,29.40
2018-04-07T16:05:42.411Z,29.30
2018-04-07T16:08:09.977Z,28.20
2018-04-07T16:10:37.420Z,29.30
2018-04-07T16:13:04.888Z,29.70
2018-04-07T16:15:32.366Z,29.30
2018-04-07T16:17:59.808Z,29.70
2018-04-07T16:20:27.248Z,29.70
2018-04-07T16:22:54.713Z,29.80
2018-04-07T16:25:22.156Z,29.70
2018-04-07T16:27:49.629Z,30.00
2018-04-07T16:30:17.412Z,29.40
2018-04-07T16:32:44.870Z,29.50
2018-04-07T16:35:12.318Z,30.00
2018-04-07T16:37:39.768Z,29.50
2018-04-07T16:40:07.225Z,29.10
2018-04-07T16:42:34.684Z,28.50
2018-04-07T16:45:02.129Z,28.60
2018-04-07T16:47:29.612Z,28.60
2018-04-07T16:49:57.065Z,28.90
2018-04-07T16:52:24.536Z,29.10
2018-04-07T16:54:51.969Z,29.10
2018-04-07T16:57:19.421Z,29.50
2018-04-07T16:59:46.904Z,29.30
2018-04-07T17:02:14.339Z,29.60
2018-04-07T17:04:41.836Z,29.80
2018-04-07T17:07:10.076Z,30.20
2018-04-07T17:09:37.534Z,30.20
2018-04-07T17:12:04.981Z,30.50
2018-04-07T17:14:32.441Z,30.00
2018-04-07T17:16:59.878Z,30.50
2018-04-07T17:19:27.348Z,30.60
2018-04-07T17:21:54.804Z,30.60
2018-04-07T17:24:22.253Z,30.70
2018-04-07T17:26:49.730Z,31.30
2018-04-07T17:29:17.188Z,31.20
2018-04-07T17:31:44.637Z,32.00
2018-04-07T17:34:12.200Z,33.10
2018-04-07T17:36:39.646Z,34.40
2018-04-07T17:39:07.101Z,35.50
2018-04-07T17:41:34.554Z,38.20
2018-04-07T17:44:02.009Z,41.70
2018-04-07T17:46:29.450Z,40.30
2018-04-07T17:49:05.991Z,40.30
2018-04-07T17:51:25.104Z,40.30
2018-04-07T17:53:52.562Z,40.30
2018-04-07T17:56:20.014Z,40.80
2018-04-07T17:58:47.474Z,41.70
2018-04-07T18:01:14.919Z,42.10
2018-04-07T18:03:42.392Z,42.30
2018-04-07T18:06:09.858Z,42.90
2018-04-07T18:08:37.316Z,43.40
2018-04-07T18:11:04.767Z,42.90
2018-04-07T18:13:32.233Z,42.80
2018-04-07T18:15:59.701Z,44.00
2018-04-07T18:18:27.290Z,45.00
2018-04-07T18:20:54.941Z,45.90
2018-04-07T18:23:23.214Z,45.90
2018-04-07T18:25:51.454Z,48.00
2018-04-07T18:28:18.914Z,47.90
2018-04-07T18:30:46.376Z,48.70
2018-04-07T18:33:24.715Z,49.00
2018-04-07T18:35:52.933Z,50.00
2018-04-07T18:38:20.407Z,49.90
2018-04-07T18:40:47.865Z,50.10
2018-04-07T18:43:15.328Z,50.30
2018-04-07T18:45:42.799Z,49.20
2018-04-07T18:48:10.233Z,49.20
2018-04-07T18:50:37.695Z,49.30
2018-04-07T18:53:05.149Z,49.60
2018-04-07T18:55:33.450Z,49.70
2018-04-07T18:58:00.890Z,50.60
2018-04-07T19:00:28.399Z,50.20
2018-04-07T19:02:55.860Z,49.70
2018-04-07T19:05:24.085Z,49.90
2018-04-07T19:07:51.545Z,49.30
2018-04-07T19:10:19.003Z,50.10
2018-04-07T19:12:46.444Z,50.30
2018-04-07T19:15:13.921Z,50.70
2018-04-07T19:17:41.367Z,51.70
2018-04-07T19:20:08.830Z,51.90
2018-04-07T19:22:36.306Z,51.30
2018-04-07T19:25:03.750Z,51.40
2018-04-07T19:27:31.202Z,51.30
2018-04-07T19:29:58.656Z,51.90
2018-04-07T19:32:26.394Z,52.40
2018-04-07T19:34:53.876Z,51.00
2018-04-07T19:37:21.493Z,51.00
2018-04-07T19:39:49.001Z,50.30
2018-04-07T19:42:16.545Z,51.20
2018-04-07T19:44:45.349Z,51.10
2018-04-07T19:47:12.894Z,50.90
2018-04-07T19:49:40.369Z,51.30
2018-04-07T19:52:07.949Z,51.90
2018-04-07T19:54:35.416Z,51.50
2018-04-07T19:57:02.890Z,51.60
2018-04-07T19:59:30.349Z,50.20
2018-04-07T20:01:57.807Z,50.20
2018-04-07T20:04:25.296Z,50.50
2018-04-07T20:06:52.806Z,50.50
2018-04-07T20:09:20.252Z,52.50
2018-04-07T20:11:47.753Z,52.90
2018-04-07T20:14:15.977Z,52.50
2018-04-07T20:16:43.450Z,52.50
2018-04-07T20:19:10.931Z,54.10
2018-04-07T20:21:38.400Z,54.70
2018-04-07T20:24:06.641Z,52.50
2018-04-07T20:26:34.094Z,52.50
2018-04-07T20:29:01.680Z,54.80
2018-04-07T20:31:29.144Z,55.00
2018-04-07T20:33:57.356Z,54.60
2018-04-07T20:36:25.107Z,54.60
2018-04-07T20:38:53.420Z,52.40
2018-04-07T20:41:20.876Z,52.30
2018-04-07T20:43:48.366Z,52.70
2018-04-07T20:46:15.835Z,53.40
2018-04-07T20:48:44.069Z,51.40
2018-04-07T20:51:11.547Z,51.40
2018-04-07T20:53:39.004Z,52.70
2018-04-07T20:56:06.502Z,51.80
2018-04-07T20:58:34.042Z,50.70
2018-04-07T21:01:01.846Z,51.30
2018-04-07T21:03:29.295Z,52.40
2018-04-07T21:05:56.754Z,52.80
2018-04-07T21:08:24.200Z,52.40
2018-04-07T21:10:51.656Z,53.20
2018-04-07T21:13:19.528Z,54.10
2018-04-07T21:15:46.984Z,55.10
2018-04-07T21:18:14.453Z,54.20
2018-04-07T21:20:41.913Z,54.50
2018-04-07T21:23:09.370Z,54.20
2018-04-07T21:25:36.838Z,53.60
2018-04-07T21:28:04.268Z,54.50
2018-04-07T21:30:31.720Z,54.80
2018-04-07T21:32:59.191Z,55.60
2018-04-07T21:35:26.729Z,54.20
2018-04-07T21:38:11.393Z,54.30
2018-04-07T21:40:39.639Z,56.00
2018-04-07T21:45:41.288Z,54.70
2018-04-07T21:48:08.729Z,54.70
2018-04-07T21:50:36.186Z,54.70
2018-04-07T21:53:03.639Z,55.20
2018-04-07T21:55:31.098Z,56.60
2018-04-07T21:57:58.541Z,56.50
2018-04-07T22:00:26.161Z,54.70
2018-04-07T22:02:53.614Z,55.70
2018-04-07T22:05:21.153Z,55.50
2018-04-07T22:07:48.600Z,56.00
2018-04-07T22:10:16.088Z,56.90
2018-04-07T22:12:43.541Z,57.50
2018-04-07T22:15:11.001Z,58.60
2018-04-07T22:17:38.470Z,57.20
2018-04-07T22:20:05.914Z,57.10
2018-04-07T22:22:33.381Z,57.90
2018-04-07T22:25:00.856Z,57.10
2018-04-07T22:27:29.074Z,55.10
2018-04-07T22:29:56.643Z,55.10
2018-04-07T22:32:24.102Z,55.70
2018-04-07T22:34:51.557Z,56.10
2018-04-07T22:37:19.010Z,56.00
2018-04-07T22:39:46.471Z,56.50
2018-04-07T22:42:13.928Z,56.80
2018-04-07T22:44:41.409Z,57.30
2018-04-07T22:47:08.877Z,57.00
2018-04-07T22:49:36.340Z,57.30
2018-04-07T22:52:03.799Z,55.10
2018-04-07T22:54:31.256Z,55.20
2018-04-07T22:56:59.481Z,53.40
2018-04-07T22:59:26.953Z,53.70
2018-04-07T23:01:54.405Z,53.80
2018-04-07T23:04:21.887Z,54.20
2018-04-07T23:06:49.341Z,55.60
2018-04-07T23:09:16.825Z,55.70
2018-04-07T23:11:44.279Z,55.80
2018-04-07T23:14:11.712Z,56.60
2018-04-07T23:16:39.165Z,54.80
2018-04-07T23:19:06.617Z,54.60
2018-04-07T23:21:34.080Z,54.40
2018-04-07T23:24:01.537Z,54.40
2018-04-07T23:26:29.004Z,54.50
2018-04-07T23:28:56.445Z,55.40
2018-04-07T23:31:23.903Z,54.60
2018-04-07T23:33:51.357Z,54.10
2018-04-07T23:36:18.818Z,56.10
2018-04-07T23:38:46.281Z,56.50
2018-04-07T23:41:13.739Z,56.70
2018-04-07T23:43:41.190Z,56.70
2018-04-07T23:46:08.664Z,55.80
2018-04-07T23:48:36.102Z,55.60
2018-04-07T23:51:03.574Z,55.90
2018-04-07T23:53:31.028Z,56.70
2018-04-07T23:55:58.493Z,55.70
2018-04-07T23:58:25.948Z,55.30
